| time (UTC) | temp F | wind direction | speed MPH | gust MPH | rain 1hr in | rain 24hr in | rain mn in | humidity % | barometer mb |
| 20260506032148 | 67 | 259 | 2.0 | 7.0 | 0.00 | 0.15 | 0.15 | 35 | 1088.9 |
| 20260506025148 | 68 | 42 | 6.0 | 8.0 | 0.00 | 0.15 | 0.15 | 33 | 1087.9 |
| 20260506022147 | 68 | 18 | 6.0 | 10.0 | 0.00 | 0.15 | 0.15 | 31 | 1087.4 |
| 20260506015143 | 69 | 276 | 5.0 | 8.0 | 0.00 | 0.15 | 0.15 | 29 | 1087.2 |
| 20260506012141 | 71 | 352 | 2.0 | 4.0 | 0.00 | 0.15 | 0.15 | 25 | 1087.1 |
| 20260506005136 | 71 | 45 | 2.0 | 7.0 | 0.00 | 0.15 | 0.15 | 25 | 1086.9 |
| 20260506002131 | 73 | 45 | 3.0 | 4.0 | 0.00 | 0.15 | 0.15 | 26 | 1086.7 |
| 20260505235131 | 75 | 265 | 7.0 | 13.0 | 0.00 | 0.15 | 0.15 | 25 | 1086.3 |
| 20260505232126 | 75 | 301 | 2.0 | 13.0 | 0.00 | 0.15 | 0.15 | 24 | 1086.2 |
| 20260505225125 | 75 | 303 | 6.0 | 8.0 | 0.00 | 0.15 | 0.15 | 26 | 1086.1 |
| 20260505222123 | 75 | 129 | 1.0 | 10.0 | 0.00 | 0.15 | 0.15 | 25 | 1086.5 |
| 20260505215119 | 75 | 266 | 4.0 | 10.0 | 0.00 | 0.15 | 0.15 | 26 | 1086.8 |
| 20260505212118 | 76 | 187 | 1.0 | 7.0 | 0.00 | 0.15 | 0.15 | 26 | 1087.1 |
| 20260505205119 | 73 | 114 | 2.0 | 4.0 | 0.00 | 0.15 | 0.15 | 33 | 1087.9 |
| 20260505202116 | 72 | 193 | 3.0 | 6.0 | 0.00 | 0.15 | 0.15 | 39 | 1088.2 |
| 20260505195111 | 74 | 249 | 6.0 | 10.0 | 0.00 | 0.15 | 0.15 | 37 | 1087.9 |
| 20260505192111 | 74 | 89 | 0.0 | 3.0 | 0.00 | 0.15 | 0.15 | 42 | 1088.3 |
| 20260505185109 | 72 | 344 | 1.0 | 3.0 | 0.00 | 0.15 | 0.15 | 45 | 1088.6 |
| 20260505182107 | 70 | 262 | 1.0 | 3.0 | 0.00 | 0.15 | 0.15 | 47 | 1089.0 |
| 20260505175103 | 71 | 332 | 0.0 | 1.0 | 0.00 | 0.15 | 0.15 | 48 | 1089.2 |
| 20260505172102 | 68 | 307 | 1.0 | 2.0 | 0.00 | 0.15 | 0.15 | 54 | 1089.5 |
| 20260505165102 | 66 | 261 | 1.0 | 2.0 | 0.00 | 0.15 | 0.15 | 57 | 1089.4 |
| 20260505162058 | 64 | 219 | 1.0 | 4.0 | 0.00 | 0.15 | 0.15 | 63 | 1089.4 |
| 20260505152053 | 60 | 154 | 0.0 | 1.0 | 0.00 | 0.15 | 0.15 | 86 | 1089.3 |
| 20260505125041 | 57 | 154 | 0.0 | 0.0 | 0.00 | 0.15 | 0.15 | 94 | 1088.1 |
| 20260505122038 | 57 | 123 | 0.0 | 0.0 | 0.00 | 0.15 | 0.15 | 94 | 1088.0 |
| 20260505115034 | 57 | 162 | 0.0 | 0.0 | 0.00 | 0.15 | 0.15 | 93 | 1087.8 |
| 20260505112032 | 57 | 114 | 0.0 | 1.0 | 0.00 | 0.15 | 0.15 | 93 | 1088.0 |
| 20260505102027 | 57 | 113 | 2.0 | 4.0 | 0.00 | 0.14 | 0.14 | 93 | 1088.1 |
| 20260505095025 | 57 | 101 | 0.0 | 2.0 | 0.00 | 0.14 | 0.14 | 93 | 1089.0 |
| 20260505092025 | 57 | 152 | 1.0 | 3.0 | 0.00 | 0.14 | 0.14 | 93 | 1088.9 |
| 20260505085022 | 57 | 124 | 0.0 | 1.0 | 0.00 | 0.13 | 0.13 | 92 | 1089.2 |
| 20260505082021 | 57 | 73 | 1.0 | 4.0 | 0.07 | 0.12 | 0.12 | 92 | 1090.1 |
| 20260505075018 | 57 | 109 | 0.0 | 1.0 | 0.07 | 0.08 | 0.08 | 92 | 1090.9 |
| 20260505072017 | 58 | 148 | 0.0 | 1.0 | 0.19 | 0.04 | 0.04 | 92 | 1091.2 |
| 20260505065014 | 57 | 188 | 0.0 | 0.0 | 0.07 | 0.15 | 0.15 | 91 | 1091.3 |
| 20260505062014 | 57 | 262 | 0.0 | 0.0 | 0.05 | 0.12 | 0.12 | 90 | 1091.3 |
| 20260505055012 | 56 | 244 | 0.0 | 0.0 | 0.07 | 0.11 | 0.11 | 89 | 1091.4 |
| 20260505052007 | 56 | 324 | 0.0 | 0.0 | 0.05 | 0.10 | 0.10 | 88 | 1091.3 |
| 20260505034959 | 59 | 152 | 2.0 | 4.0 | 0.00 | 0.03 | 0.03 | 66 | 1091.2 |